createdAt,value
2022-10-20T00:00:05.339Z,99863.00
2022-10-20T00:01:05.379Z,99860.00
2022-10-20T00:02:05.374Z,99863.00
2022-10-20T00:03:05.442Z,99864.00
2022-10-20T00:04:05.413Z,99861.00
2022-10-20T00:05:05.468Z,99863.00
2022-10-20T00:06:05.471Z,99861.00
2022-10-20T00:07:05.441Z,99861.00
2022-10-20T00:08:05.472Z,99859.00
2022-10-20T00:09:05.586Z,99857.00
2022-10-20T00:10:05.972Z,99858.00
2022-10-20T00:11:05.502Z,99856.00
2022-10-20T00:12:05.489Z,99854.00
2022-10-20T00:13:05.508Z,99849.00
2022-10-20T00:14:05.572Z,99848.00
2022-10-20T00:15:05.536Z,99846.00
2022-10-20T00:16:05.552Z,99847.00
2022-10-20T00:17:05.613Z,99848.00
2022-10-20T00:18:05.608Z,99844.00
2022-10-20T00:19:05.634Z,99842.00
2022-10-20T00:20:05.772Z,99844.00
2022-10-20T00:21:05.680Z,99840.00
2022-10-20T00:22:05.703Z,99840.00
2022-10-20T00:23:05.714Z,99841.00
2022-10-20T00:24:05.745Z,99832.00
2022-10-20T00:25:05.761Z,99828.00
2022-10-20T00:26:05.762Z,99826.00
2022-10-20T00:27:05.787Z,99827.00
2022-10-20T00:28:05.803Z,99818.00
2022-10-20T00:29:05.916Z,99822.00
2022-10-20T00:30:05.827Z,99822.00
2022-10-20T00:31:05.853Z,99819.00
2022-10-20T00:32:05.883Z,99830.00
2022-10-20T00:33:05.949Z,99827.00
2022-10-20T00:34:05.916Z,99831.00
2022-10-20T00:35:05.922Z,99828.00
2022-10-20T00:36:05.882Z,99823.00
2022-10-20T00:37:05.874Z,99824.00
2022-10-20T00:38:05.906Z,99824.00
2022-10-20T00:39:05.879Z,99822.00
2022-10-20T00:40:05.872Z,99820.00
2022-10-20T00:41:05.862Z,99819.00
2022-10-20T00:42:05.875Z,99819.00
2022-10-20T00:43:05.892Z,99824.00
2022-10-20T00:44:05.921Z,99825.00
2022-10-20T00:45:05.956Z,99825.00
2022-10-20T00:46:05.926Z,99822.00
2022-10-20T00:47:05.946Z,99824.00
2022-10-20T00:48:05.962Z,99823.00
2022-10-20T00:49:05.989Z,99821.00
2022-10-20T00:50:05.997Z,99818.00
2022-10-20T00:51:05.979Z,99821.00
2022-10-20T00:52:06.003Z,99819.00
2022-10-20T00:53:06.042Z,99827.00
2022-10-20T00:54:06.066Z,99824.00
2022-10-20T00:55:06.079Z,99822.00
2022-10-20T00:56:06.094Z,99819.00
2022-10-20T00:57:06.094Z,99818.00
2022-10-20T00:58:06.107Z,99816.00
2022-10-20T00:59:06.132Z,99813.00
2022-10-20T01:00:06.156Z,99813.00
2022-10-20T01:01:06.198Z,99815.00
2022-10-20T01:02:06.244Z,99816.00
2022-10-20T01:03:06.173Z,99814.00
2022-10-20T01:04:06.185Z,99810.00
2022-10-20T01:05:06.207Z,99817.00
2022-10-20T01:06:06.204Z,99818.00
2022-10-20T01:07:06.194Z,99813.00
2022-10-20T01:08:06.219Z,99816.00
2022-10-20T01:09:06.319Z,99823.00
2022-10-20T01:10:06.243Z,99819.00
2022-10-20T01:11:06.278Z,99815.00
2022-10-20T01:12:06.263Z,99817.00
2022-10-20T01:13:06.361Z,99814.00
2022-10-20T01:14:06.333Z,99810.00
2022-10-20T01:15:06.344Z,99806.00
2022-10-20T01:16:06.385Z,99806.00
2022-10-20T01:17:06.358Z,99802.00
2022-10-20T01:18:06.390Z,99798.00
2022-10-20T01:19:06.383Z,99791.00
2022-10-20T01:20:06.411Z,99787.00
2022-10-20T01:21:06.463Z,99785.00
2022-10-20T01:22:06.414Z,99781.00
2022-10-20T01:23:06.420Z,99779.00
2022-10-20T01:24:06.450Z,99780.00
2022-10-20T01:25:06.489Z,99776.00
2022-10-20T01:26:06.491Z,99776.00
2022-10-20T01:27:06.506Z,99775.00
2022-10-20T01:28:06.469Z,99774.00
2022-10-20T01:29:06.492Z,99772.00
2022-10-20T01:30:06.545Z,99772.00
2022-10-20T01:31:06.520Z,99778.00
2022-10-20T01:32:06.534Z,99780.00
2022-10-20T01:33:06.554Z,99774.00
2022-10-20T01:34:06.557Z,99776.00
2022-10-20T01:35:06.608Z,99776.00
2022-10-20T01:36:06.624Z,99771.00
2022-10-20T01:37:06.664Z,99771.00
2022-10-20T01:38:06.666Z,99766.00
2022-10-20T01:39:06.690Z,99762.00
2022-10-20T01:40:06.746Z,99761.00
2022-10-20T01:41:06.706Z,99759.00
2022-10-20T01:42:06.728Z,99759.00
2022-10-20T01:43:06.740Z,99764.00
2022-10-20T01:44:06.767Z,99759.00
2022-10-20T01:45:06.771Z,99762.00
2022-10-20T01:46:06.796Z,99756.00
2022-10-20T01:47:06.830Z,99751.00
2022-10-20T01:48:06.808Z,99753.00
2022-10-20T01:49:06.880Z,99749.00
2022-10-20T01:50:06.846Z,99748.00
2022-10-20T01:51:06.886Z,99745.00
2022-10-20T01:52:06.863Z,99743.00
2022-10-20T01:53:06.923Z,99740.00
2022-10-20T01:54:06.880Z,99735.00
2022-10-20T01:55:06.915Z,99728.00
2022-10-20T01:56:06.927Z,99729.00
2022-10-20T01:57:06.941Z,99726.00
2022-10-20T01:58:06.982Z,99726.00
2022-10-20T01:59:07.050Z,99725.00
2022-10-20T02:00:07.003Z,99726.00
2022-10-20T02:01:07.027Z,99728.00
2022-10-20T02:02:07.066Z,99731.00
2022-10-20T02:03:07.090Z,99732.00
2022-10-20T02:04:07.129Z,99731.00
2022-10-20T02:05:07.095Z,99732.00
2022-10-20T02:06:07.137Z,99732.00
2022-10-20T02:07:07.388Z,99726.00
2022-10-20T02:08:07.174Z,99726.00
2022-10-20T02:09:07.210Z,99727.00
2022-10-20T02:10:07.165Z,99730.00
2022-10-20T02:11:07.192Z,99722.00
2022-10-20T02:12:07.225Z,99724.00
2022-10-20T02:13:07.243Z,99725.00
2022-10-20T02:14:07.275Z,99726.00
2022-10-20T02:15:07.252Z,99723.00
2022-10-20T02:16:07.276Z,99722.00
2022-10-20T02:17:07.305Z,99722.00
2022-10-20T02:18:07.347Z,99722.00
2022-10-20T02:19:07.325Z,99721.00
2022-10-20T02:20:07.338Z,99725.00
2022-10-20T02:21:07.346Z,99724.00
2022-10-20T02:22:07.368Z,99721.00
2022-10-20T02:23:07.424Z,99723.00
2022-10-20T02:24:07.397Z,99721.00
2022-10-20T02:25:07.401Z,99722.00
2022-10-20T02:26:07.393Z,99725.00
2022-10-20T02:27:07.407Z,99720.00
2022-10-20T02:28:07.427Z,99719.00
2022-10-20T02:29:07.482Z,99715.00
2022-10-20T02:30:07.462Z,99713.00
2022-10-20T02:31:07.474Z,99709.00
2022-10-20T02:32:07.501Z,99709.00
2022-10-20T02:33:07.518Z,99710.00
2022-10-20T02:34:07.552Z,99710.00
2022-10-20T02:35:07.531Z,99708.00
2022-10-20T02:36:07.569Z,99712.00
2022-10-20T02:37:07.638Z,99712.00
2022-10-20T02:38:07.638Z,99710.00
2022-10-20T02:39:07.658Z,99707.00
2022-10-20T02:40:07.641Z,99713.00
2022-10-20T02:41:07.688Z,99713.00
2022-10-20T02:42:07.693Z,99714.00
2022-10-20T02:43:07.717Z,99716.00
2022-10-20T02:44:07.736Z,99715.00
2022-10-20T02:45:07.704Z,99716.00
2022-10-20T02:46:07.799Z,99714.00
2022-10-20T02:47:07.714Z,99719.00
2022-10-20T02:48:07.982Z,99714.00
2022-10-20T02:49:07.723Z,99714.00
2022-10-20T02:50:07.744Z,99716.00
2022-10-20T02:51:07.776Z,99716.00
2022-10-20T02:52:07.744Z,99715.00
2022-10-20T02:53:07.743Z,99717.00
2022-10-20T02:54:07.771Z,99713.00
2022-10-20T02:55:07.881Z,99707.00
2022-10-20T02:56:07.767Z,99712.00
2022-10-20T02:57:07.877Z,99709.00
2022-10-20T02:58:07.790Z,99715.00
2022-10-20T02:59:07.813Z,99708.00
2022-10-20T03:00:07.851Z,99713.00
2022-10-20T03:01:07.842Z,99710.00
2022-10-20T03:02:07.967Z,99706.00
2022-10-20T03:03:07.917Z,99711.00
2022-10-20T03:04:07.866Z,99709.00
2022-10-20T03:05:07.897Z,99705.00
2022-10-20T03:06:07.885Z,99703.00
2022-10-20T03:07:07.903Z,99702.00
2022-10-20T03:08:07.917Z,99704.00
2022-10-20T03:09:07.977Z,99695.00
2022-10-20T03:10:07.999Z,99697.00
2022-10-20T03:11:07.962Z,99697.00
2022-10-20T03:12:07.995Z,99696.00
2022-10-20T03:13:08.043Z,99696.00
2022-10-20T03:14:08.044Z,99697.00
2022-10-20T03:15:08.051Z,99697.00
2022-10-20T03:16:08.053Z,99693.00
2022-10-20T03:17:08.061Z,99692.00
2022-10-20T03:18:08.088Z,99695.00
2022-10-20T03:19:11.392Z,99691.00
2022-10-20T03:20:08.149Z,99693.00
2022-10-20T03:21:08.140Z,99692.00
2022-10-20T03:22:08.172Z,99694.00
2022-10-20T03:23:08.156Z,99685.00
2022-10-20T03:24:08.183Z,99694.00
2022-10-20T03:25:08.287Z,99693.00
2022-10-20T03:26:08.240Z,99691.00
2022-10-20T03:27:08.271Z,99694.00
2022-10-20T03:28:08.300Z,99692.00
2022-10-20T03:29:08.355Z,99688.00
2022-10-20T03:30:08.333Z,99687.00
2022-10-20T03:31:08.319Z,99692.00
2022-10-20T03:32:08.331Z,99691.00
2022-10-20T03:33:08.343Z,99687.00
2022-10-20T03:34:08.378Z,99691.00
2022-10-20T03:35:08.418Z,99689.00
2022-10-20T03:36:08.472Z,99691.00
2022-10-20T03:37:08.428Z,99690.00
2022-10-20T03:38:08.438Z,99686.00
2022-10-20T03:39:08.474Z,99683.00
2022-10-20T03:40:08.501Z,99686.00
2022-10-20T03:41:08.526Z,99687.00
2022-10-20T03:42:08.513Z,99686.00
2022-10-20T03:43:08.518Z,99683.00
2022-10-20T03:44:08.550Z,99683.00
2022-10-20T03:45:08.603Z,99682.00
2022-10-20T03:46:08.593Z,99683.00
2022-10-20T03:47:08.558Z,99682.00
2022-10-20T03:48:08.588Z,99687.00
2022-10-20T03:49:08.615Z,99692.00
2022-10-20T03:50:08.638Z,99691.00
2022-10-20T03:51:08.667Z,99695.00
2022-10-20T03:52:08.656Z,99699.00
2022-10-20T03:53:08.636Z,99698.00
2022-10-20T03:54:08.655Z,99697.00
2022-10-20T03:55:08.712Z,99695.00
2022-10-20T03:56:08.717Z,99691.00
2022-10-20T03:57:08.731Z,99688.00
2022-10-20T03:58:08.744Z,99686.00
2022-10-20T03:59:08.802Z,99685.00
2022-10-20T04:00:08.799Z,99681.00
2022-10-20T04:01:08.848Z,99685.00
2022-10-20T04:02:08.981Z,99680.00
2022-10-20T04:03:08.889Z,99680.00
2022-10-20T04:04:08.905Z,99683.00
2022-10-20T04:05:08.940Z,99679.00
2022-10-20T04:06:08.955Z,99675.00
2022-10-20T04:07:09.020Z,99676.00
2022-10-20T04:08:09.028Z,99674.00
2022-10-20T04:09:09.012Z,99678.00
2022-10-20T04:10:09.005Z,99676.00
2022-10-20T04:11:09.032Z,99680.00
2022-10-20T04:12:09.045Z,99673.00
2022-10-20T04:13:09.352Z,99677.00
2022-10-20T04:14:09.091Z,99671.00
2022-10-20T04:15:09.046Z,99673.00
2022-10-20T04:16:09.068Z,99667.00
2022-10-20T04:17:09.108Z,99662.00
2022-10-20T04:18:09.072Z,99666.00
2022-10-20T04:19:09.100Z,99665.00
2022-10-20T04:20:09.114Z,99665.00
2022-10-20T04:21:09.119Z,99672.00
2022-10-20T04:22:09.146Z,99671.00
2022-10-20T04:23:09.162Z,99667.00
2022-10-20T04:24:09.171Z,99666.00
2022-10-20T04:25:09.163Z,99663.00
2022-10-20T04:26:09.188Z,99661.00
2022-10-20T04:27:09.226Z,99664.00
2022-10-20T04:28:09.191Z,99660.00
2022-10-20T04:29:09.221Z,99660.00
2022-10-20T04:30:09.245Z,99661.00
2022-10-20T04:31:09.257Z,99657.00
2022-10-20T04:32:09.295Z,99658.00
2022-10-20T04:33:09.345Z,99657.00
2022-10-20T04:34:09.354Z,99657.00
2022-10-20T04:35:09.316Z,99653.00
2022-10-20T04:36:09.337Z,99656.00
2022-10-20T04:37:09.437Z,99657.00
2022-10-20T04:38:09.369Z,99651.00
2022-10-20T04:39:09.347Z,99656.00
2022-10-20T04:40:09.349Z,99657.00
2022-10-20T04:41:09.392Z,99653.00
2022-10-20T04:42:09.407Z,99651.00
2022-10-20T04:43:09.402Z,99650.00
2022-10-20T04:44:09.421Z,99646.00
2022-10-20T04:45:09.452Z,99643.00
2022-10-20T04:46:09.485Z,99645.00
2022-10-20T04:47:09.473Z,99639.00
2022-10-20T04:48:09.469Z,99634.00
2022-10-20T04:49:09.488Z,99632.00
2022-10-20T04:50:09.450Z,99637.00
2022-10-20T04:51:09.483Z,99634.00
2022-10-20T04:52:09.458Z,99634.00
2022-10-20T04:53:09.494Z,99633.00
2022-10-20T04:54:09.506Z,99628.00
2022-10-20T04:55:09.544Z,99626.00
2022-10-20T04:56:09.513Z,99620.00
2022-10-20T04:57:09.538Z,99617.00
2022-10-20T04:58:09.559Z,99619.00
2022-10-20T04:59:12.647Z,99615.00
2022-10-20T05:01:35.515Z,99610.00
2022-10-20T05:02:35.493Z,99611.00
2022-10-20T05:03:35.524Z,99612.00
2022-10-20T05:04:35.557Z,99604.00
2022-10-20T05:05:35.559Z,99606.00
2022-10-20T05:06:35.560Z,99606.00
2022-10-20T05:07:35.954Z,99601.00
2022-10-20T05:08:35.591Z,99604.00
2022-10-20T05:09:35.568Z,99598.00
2022-10-20T05:10:36.704Z,99596.00
2022-10-20T05:11:35.603Z,99596.00
2022-10-20T05:12:35.850Z,99588.00
2022-10-20T05:13:35.637Z,99588.00
2022-10-20T05:14:35.657Z,99584.00
2022-10-20T05:15:35.688Z,99579.00
2022-10-20T05:16:35.657Z,99579.00
2022-10-20T05:17:35.675Z,99574.00
2022-10-20T05:18:35.678Z,99574.00
2022-10-20T05:19:35.720Z,99579.00
2022-10-20T05:20:41.132Z,99580.00
2022-10-20T05:21:35.834Z,99580.00
2022-10-20T05:22:36.110Z,99582.00
2022-10-20T05:23:35.784Z,99586.00
2022-10-20T05:24:35.809Z,99585.00
2022-10-20T05:25:37.017Z,99585.00
2022-10-20T05:26:35.826Z,99588.00
2022-10-20T05:27:35.876Z,99589.00
2022-10-20T05:28:35.918Z,99586.00
2022-10-20T05:29:35.871Z,99585.00
2022-10-20T05:30:35.937Z,99581.00
2022-10-20T05:31:35.937Z,99580.00
2022-10-20T05:32:36.241Z,99577.00
2022-10-20T05:33:35.910Z,99576.00
2022-10-20T05:34:35.941Z,99575.00
2022-10-20T05:35:35.934Z,99568.00
2022-10-20T05:36:36.000Z,99569.00
2022-10-20T05:37:35.947Z,99567.00
2022-10-20T05:38:36.009Z,99565.00
2022-10-20T05:39:36.082Z,99569.00
2022-10-20T05:40:35.996Z,99567.00
2022-10-20T05:41:38.707Z,99566.00
2022-10-20T05:42:36.381Z,99571.00
2022-10-20T05:43:36.027Z,99566.00
2022-10-20T05:44:36.056Z,99568.00
2022-10-20T05:45:36.075Z,99568.00
2022-10-20T05:46:36.104Z,99569.00
2022-10-20T05:47:36.135Z,99571.00
2022-10-20T05:48:42.140Z,99571.00
2022-10-20T05:49:36.129Z,99575.00
2022-10-20T05:50:36.136Z,99576.00
2022-10-20T05:51:36.201Z,99574.00
2022-10-20T05:52:36.619Z,99578.00
2022-10-20T05:53:36.160Z,99573.00
2022-10-20T05:54:36.174Z,99578.00
2022-10-20T05:55:36.191Z,99575.00
2022-10-20T05:56:37.204Z,99581.00
2022-10-20T05:57:36.297Z,99578.00
2022-10-20T05:58:36.232Z,99579.00
2022-10-20T05:59:36.263Z,99579.00
2022-10-20T06:00:36.304Z,99584.00
2022-10-20T06:01:36.410Z,99580.00
2022-10-20T06:02:36.494Z,99581.00
2022-10-20T06:03:36.358Z,99579.00
2022-10-20T06:04:36.388Z,99583.00
2022-10-20T06:05:36.394Z,99577.00
2022-10-20T06:06:36.417Z,99577.00
2022-10-20T06:07:36.404Z,99570.00
2022-10-20T06:08:36.495Z,99569.00
2022-10-20T06:09:36.478Z,99562.00
2022-10-20T06:10:36.455Z,99562.00
2022-10-20T06:11:39.224Z,99554.00
2022-10-20T06:12:36.919Z,99557.00
2022-10-20T06:13:36.522Z,99553.00
2022-10-20T06:14:36.582Z,99562.00
2022-10-20T06:15:36.552Z,99562.00
2022-10-20T06:16:36.580Z,99566.00
2022-10-20T06:17:36.629Z,99563.00
2022-10-20T06:18:36.623Z,99564.00
2022-10-20T06:19:36.665Z,99563.00
2022-10-20T06:20:36.707Z,99564.00
2022-10-20T06:21:36.740Z,99562.00
2022-10-20T06:22:36.979Z,99565.00
2022-10-20T06:23:36.733Z,99568.00
2022-10-20T06:24:36.771Z,99567.00
2022-10-20T06:25:36.733Z,99572.00
2022-10-20T06:26:36.793Z,99574.00
2022-10-20T06:27:36.775Z,99572.00
2022-10-20T06:28:36.733Z,99572.00
2022-10-20T06:29:36.770Z,99576.00
2022-10-20T06:30:36.788Z,99573.00
2022-10-20T06:31:36.805Z,99575.00
2022-10-20T06:32:37.163Z,99578.00
2022-10-20T06:33:36.829Z,99580.00
2022-10-20T06:34:36.875Z,99582.00
2022-10-20T06:35:36.890Z,99585.00
2022-10-20T06:36:36.913Z,99589.00
2022-10-20T06:37:36.941Z,99588.00
2022-10-20T06:38:36.981Z,99587.00
2022-10-20T06:39:37.037Z,99581.00
2022-10-20T06:40:36.993Z,99578.00
2022-10-20T06:41:37.004Z,99570.00
2022-10-20T06:42:37.370Z,99569.00
2022-10-20T06:43:36.994Z,99562.00
2022-10-20T06:44:36.994Z,99559.00
2022-10-20T06:45:36.987Z,99559.00
2022-10-20T06:46:37.042Z,99564.00
2022-10-20T06:47:37.239Z,99570.00
2022-10-20T06:48:37.004Z,99576.00
2022-10-20T06:49:37.040Z,99580.00
2022-10-20T06:50:37.012Z,99574.00
2022-10-20T06:51:37.047Z,99566.00
2022-10-20T06:52:37.426Z,99569.00
2022-10-20T06:53:37.068Z,99569.00
2022-10-20T06:54:37.096Z,99571.00
2022-10-20T06:55:37.077Z,99568.00
2022-10-20T06:56:37.102Z,99565.00
2022-10-20T06:57:37.112Z,99564.00
2022-10-20T06:58:37.157Z,99562.00
2022-10-20T06:59:37.157Z,99554.00
2022-10-20T07:00:37.117Z,99554.00
2022-10-20T07:01:37.232Z,99548.00
2022-10-20T07:02:37.471Z,99551.00
2022-10-20T07:03:37.200Z,99552.00
2022-10-20T07:04:37.156Z,99552.00
2022-10-20T07:05:37.187Z,99551.00
2022-10-20T07:06:37.235Z,99543.00
2022-10-20T07:07:37.258Z,99544.00
2022-10-20T07:08:37.284Z,99539.00
2022-10-20T07:09:37.207Z,99541.00
2022-10-20T07:10:37.244Z,99541.00
2022-10-20T07:11:37.251Z,99541.00
2022-10-20T07:12:37.526Z,99547.00
2022-10-20T07:13:37.231Z,99540.00
2022-10-20T07:14:37.260Z,99543.00
2022-10-20T07:15:37.292Z,99541.00
2022-10-20T07:16:37.336Z,99540.00
2022-10-20T07:17:37.325Z,99538.00
2022-10-20T07:18:37.431Z,99540.00
2022-10-20T07:19:37.374Z,99543.00
2022-10-20T07:20:37.352Z,99544.00
2022-10-20T07:21:39.275Z,99539.00
2022-10-20T07:22:37.744Z,99543.00
2022-10-20T07:23:37.374Z,99542.00
2022-10-20T07:24:37.402Z,99543.00
2022-10-20T07:25:37.435Z,99543.00
2022-10-20T07:26:37.408Z,99549.00
2022-10-20T07:27:37.426Z,99544.00
2022-10-20T07:28:37.477Z,99557.00
2022-10-20T07:29:37.440Z,99553.00
2022-10-20T07:30:37.469Z,99552.00
2022-10-20T07:31:37.426Z,99551.00
2022-10-20T07:32:37.891Z,99547.00
2022-10-20T07:33:37.416Z,99549.00
2022-10-20T07:34:37.456Z,99551.00
2022-10-20T07:35:37.486Z,99549.00
2022-10-20T07:36:37.504Z,99546.00
2022-10-20T07:37:38.099Z,99553.00
2022-10-20T07:38:37.565Z,99556.00
2022-10-20T07:39:37.566Z,99561.00
2022-10-20T07:40:37.574Z,99558.00
2022-10-20T07:41:37.576Z,99559.00
2022-10-20T07:42:37.999Z,99556.00
2022-10-20T07:43:37.689Z,99564.00
2022-10-20T07:44:37.572Z,99567.00
2022-10-20T07:45:37.555Z,99569.00
2022-10-20T07:46:37.530Z,99571.00
2022-10-20T07:47:38.354Z,99569.00
2022-10-20T07:48:37.532Z,99568.00
2022-10-20T07:49:45.365Z,99566.00
2022-10-20T07:50:37.613Z,99567.00
2022-10-20T07:51:37.626Z,99567.00
2022-10-20T07:52:38.041Z,99567.00
2022-10-20T07:53:37.847Z,99562.00
2022-10-20T07:54:37.679Z,99560.00
2022-10-20T07:55:38.928Z,99556.00
2022-10-20T07:56:37.657Z,99551.00
2022-10-20T07:57:37.698Z,99551.00
2022-10-20T07:58:37.693Z,99554.00
2022-10-20T07:59:37.734Z,99557.00
2022-10-20T08:00:37.760Z,99562.00
2022-10-20T08:01:37.824Z,99557.00
2022-10-20T08:02:38.080Z,99552.00
2022-10-20T08:03:37.726Z,99546.00
2022-10-20T08:04:37.759Z,99547.00
2022-10-20T08:05:37.751Z,99550.00
2022-10-20T08:06:39.214Z,99540.00
2022-10-20T08:07:37.801Z,99543.00
2022-10-20T08:08:37.950Z,99541.00
2022-10-20T08:09:37.920Z,99542.00
2022-10-20T08:10:37.863Z,99543.00
2022-10-20T08:11:37.894Z,99536.00
2022-10-20T08:12:38.328Z,99539.00
2022-10-20T08:13:37.922Z,99538.00
2022-10-20T08:14:38.039Z,99536.00
2022-10-20T08:15:38.120Z,99536.00
2022-10-20T08:16:38.001Z,99535.00
2022-10-20T08:17:38.044Z,99526.00
2022-10-20T08:18:38.017Z,99521.00
2022-10-20T08:19:39.069Z,99523.00
2022-10-20T08:20:38.101Z,99521.00
2022-10-20T08:21:38.065Z,99520.00
2022-10-20T08:22:38.464Z,99517.00
2022-10-20T08:23:38.105Z,99516.00
2022-10-20T08:24:38.133Z,99518.00
2022-10-20T08:25:38.203Z,99520.00
2022-10-20T08:26:38.198Z,99519.00
2022-10-20T08:27:38.149Z,99519.00
2022-10-20T08:28:38.173Z,99527.00
2022-10-20T08:29:38.281Z,99526.00
2022-10-20T08:30:38.172Z,99522.00
2022-10-20T08:31:38.200Z,99520.00
2022-10-20T08:32:38.686Z,99523.00
2022-10-20T08:33:38.351Z,99520.00
2022-10-20T08:34:38.386Z,99520.00
2022-10-20T08:35:38.294Z,99517.00
2022-10-20T08:36:38.276Z,99515.00
2022-10-20T08:37:38.649Z,99515.00
2022-10-20T08:38:38.282Z,99514.00
2022-10-20T08:39:38.289Z,99515.00
2022-10-20T08:40:38.273Z,99510.00
2022-10-20T08:42:02.727Z,99513.00
2022-10-20T08:42:38.361Z,99513.00
2022-10-20T08:43:38.348Z,99513.00
2022-10-20T08:44:38.358Z,99519.00
2022-10-20T08:45:38.667Z,99518.00
2022-10-20T08:46:38.438Z,99510.00
2022-10-20T08:47:38.804Z,99518.00
2022-10-20T08:48:38.430Z,99515.00
2022-10-20T08:49:38.468Z,99512.00
2022-10-20T08:50:38.513Z,99513.00
2022-10-20T08:51:38.612Z,99510.00
2022-10-20T08:52:38.453Z,99512.00
2022-10-20T08:53:38.490Z,99507.00
2022-10-20T08:54:38.845Z,99506.00
2022-10-20T08:55:38.711Z,99507.00
2022-10-20T08:56:38.560Z,99502.00
2022-10-20T08:57:38.957Z,99506.00
2022-10-20T08:58:38.539Z,99511.00
2022-10-20T08:59:39.594Z,99516.00
2022-10-20T09:00:38.516Z,99510.00
2022-10-20T09:01:38.584Z,99512.00
2022-10-20T09:02:38.611Z,99515.00
2022-10-20T09:03:38.576Z,99507.00
2022-10-20T09:04:38.618Z,99506.00
2022-10-20T09:05:38.603Z,99510.00
2022-10-20T09:06:38.605Z,99509.00
2022-10-20T09:07:39.074Z,99506.00
2022-10-20T09:08:38.683Z,99510.00
2022-10-20T09:09:38.669Z,99505.00
2022-10-20T09:10:38.695Z,99497.00
2022-10-20T09:11:38.649Z,99493.00
2022-10-20T09:12:38.647Z,99495.00
2022-10-20T09:13:38.746Z,99491.00
2022-10-20T09:14:38.662Z,99490.00
2022-10-20T09:15:38.672Z,99489.00
2022-10-20T09:16:58.575Z,99483.00
2022-10-20T09:17:38.906Z,99478.00
2022-10-20T09:18:38.702Z,99475.00
2022-10-20T09:19:38.731Z,99469.00
2022-10-20T09:20:38.741Z,99469.00
2022-10-20T09:21:38.832Z,99469.00
2022-10-20T09:22:38.740Z,99474.00
2022-10-20T09:23:41.947Z,99478.00
2022-10-20T09:24:38.804Z,99481.00
2022-10-20T09:25:38.850Z,99484.00
2022-10-20T09:26:57.509Z,99485.00
2022-10-20T09:27:39.127Z,99484.00
2022-10-20T09:28:55.588Z,99481.00
2022-10-20T09:29:39.036Z,99481.00
2022-10-20T09:30:38.870Z,99481.00
2022-10-20T09:31:38.921Z,99481.00
2022-10-20T09:32:47.546Z,99486.00
2022-10-20T09:33:38.949Z,99490.00
2022-10-20T09:34:39.004Z,99486.00
2022-10-20T09:35:39.011Z,99484.00
2022-10-20T09:36:38.982Z,99482.00
2022-10-20T09:37:39.026Z,99477.00
2022-10-20T09:38:39.027Z,99470.00
2022-10-20T09:39:39.612Z,99461.00
2022-10-20T09:40:39.064Z,99458.00
2022-10-20T09:41:39.027Z,99461.00
2022-10-20T09:42:39.444Z,99461.00
2022-10-20T09:43:39.077Z,99470.00
2022-10-20T09:44:39.067Z,99468.00
2022-10-20T09:45:39.094Z,99468.00
2022-10-20T09:46:39.088Z,99475.00
2022-10-20T09:47:39.112Z,99474.00
2022-10-20T09:48:39.160Z,99471.00
2022-10-20T09:49:39.153Z,99460.00
2022-10-20T09:50:39.174Z,99457.00
2022-10-20T09:51:39.145Z,99453.00
2022-10-20T09:52:39.456Z,99454.00
2022-10-20T09:53:39.422Z,99453.00
2022-10-20T09:54:39.206Z,99462.00
2022-10-20T09:55:39.235Z,99462.00
2022-10-20T09:56:39.262Z,99463.00
2022-10-20T09:57:39.290Z,99463.00
2022-10-20T09:58:39.330Z,99460.00
2022-10-20T09:59:39.325Z,99459.00
2022-10-20T10:00:39.532Z,99457.00
2022-10-20T10:01:39.381Z,99456.00
2022-10-20T10:02:39.513Z,99455.00
2022-10-20T10:03:39.448Z,99452.00
2022-10-20T10:04:39.433Z,99450.00
2022-10-20T10:05:39.444Z,99447.00
2022-10-20T10:06:39.472Z,99447.00
2022-10-20T10:07:39.480Z,99454.00
2022-10-20T10:08:39.536Z,99455.00
2022-10-20T10:09:39.515Z,99460.00
2022-10-20T10:10:39.535Z,99457.00
2022-10-20T10:11:39.548Z,99466.00
2022-10-20T10:12:39.815Z,99464.00
2022-10-20T10:13:39.601Z,99469.00
2022-10-20T10:14:39.632Z,99469.00
2022-10-20T10:15:39.601Z,99464.00
2022-10-20T10:16:39.631Z,99466.00
2022-10-20T10:17:39.978Z,99472.00
2022-10-20T10:18:39.670Z,99469.00
2022-10-20T10:19:39.648Z,99468.00
2022-10-20T10:20:39.650Z,99469.00
2022-10-20T10:21:39.658Z,99463.00
2022-10-20T10:22:39.684Z,99452.00
2022-10-20T10:23:39.749Z,99455.00
2022-10-20T10:24:39.713Z,99451.00
2022-10-20T10:25:39.755Z,99450.00
2022-10-20T10:26:39.756Z,99452.00
2022-10-20T10:27:39.749Z,99451.00
2022-10-20T10:28:39.774Z,99456.00
2022-10-20T10:29:39.750Z,99457.00
2022-10-20T10:30:39.751Z,99464.00
2022-10-20T10:31:39.805Z,99460.00
2022-10-20T10:32:39.773Z,99457.00
2022-10-20T10:33:39.856Z,99452.00
2022-10-20T10:34:39.888Z,99451.00
2022-10-20T10:35:39.777Z,99445.00
2022-10-20T10:36:39.882Z,99443.00
2022-10-20T10:37:40.218Z,99433.00
2022-10-20T10:38:39.879Z,99428.00
2022-10-20T10:39:39.927Z,99428.00
2022-10-20T10:40:39.831Z,99422.00
2022-10-20T10:41:39.879Z,99425.00
2022-10-20T10:42:40.129Z,99428.00
2022-10-20T10:43:41.863Z,99428.00
2022-10-20T10:44:39.963Z,99430.00
2022-10-20T10:45:39.932Z,99427.00
2022-10-20T10:46:40.031Z,99430.00
2022-10-20T10:47:40.574Z,99428.00
2022-10-20T10:48:39.990Z,99430.00
2022-10-20T10:49:40.004Z,99430.00
2022-10-20T10:50:40.028Z,99435.00
2022-10-20T10:51:40.017Z,99434.00
2022-10-20T10:52:39.970Z,99431.00
2022-10-20T10:53:39.998Z,99437.00
2022-10-20T10:54:40.034Z,99440.00
2022-10-20T10:55:54.657Z,99438.00
2022-10-20T10:56:40.032Z,99433.00
2022-10-20T10:57:40.140Z,99430.00
2022-10-20T10:58:40.136Z,99423.00
2022-10-20T10:59:40.181Z,99421.00
2022-10-20T11:00:40.277Z,99422.00
2022-10-20T11:01:40.283Z,99425.00
2022-10-20T11:02:40.296Z,99431.00
2022-10-20T11:03:40.159Z,99433.00
2022-10-20T11:04:40.172Z,99436.00
2022-10-20T11:05:40.177Z,99432.00
2022-10-20T11:06:40.545Z,99433.00
2022-10-20T11:07:40.158Z,99431.00
2022-10-20T11:08:40.215Z,99429.00
2022-10-20T11:09:40.182Z,99425.00
2022-10-20T11:10:40.303Z,99425.00
2022-10-20T11:11:40.202Z,99428.00
2022-10-20T11:12:40.238Z,99421.00
2022-10-20T11:13:40.247Z,99414.00
2022-10-20T11:14:40.245Z,99406.00
2022-10-20T11:15:40.333Z,99404.00
2022-10-20T11:16:40.312Z,99405.00
2022-10-20T11:17:40.287Z,99406.00
2022-10-20T11:18:40.316Z,99415.00
2022-10-20T11:19:40.290Z,99411.00
2022-10-20T11:20:40.295Z,99405.00
2022-10-20T11:21:40.294Z,99408.00
2022-10-20T11:22:40.300Z,99404.00
2022-10-20T11:23:40.333Z,99410.00
2022-10-20T11:24:40.346Z,99414.00
2022-10-20T11:25:40.383Z,99415.00
2022-10-20T11:26:40.359Z,99424.00
2022-10-20T11:27:40.513Z,99425.00
2022-10-20T11:28:40.382Z,99415.00
2022-10-20T11:29:40.435Z,99408.00
2022-10-20T11:30:40.543Z,99405.00
2022-10-20T11:31:40.440Z,99395.00
2022-10-20T11:32:40.465Z,99396.00
2022-10-20T11:33:41.517Z,99399.00
2022-10-20T11:34:40.499Z,99405.00
2022-10-20T11:35:40.533Z,99404.00
2022-10-20T11:36:40.508Z,99398.00
2022-10-20T11:37:40.503Z,99391.00
2022-10-20T11:38:41.416Z,99394.00
2022-10-20T11:39:40.555Z,99390.00
2022-10-20T11:40:40.593Z,99392.00
2022-10-20T11:42:40.605Z,99399.00
2022-10-20T11:43:40.603Z,99399.00
2022-10-20T11:44:40.612Z,99398.00
2022-10-20T11:45:40.675Z,99395.00
2022-10-20T11:46:40.626Z,99394.00